22.1°F
Current conditions from King Hill
Updated every 5 minutes
 
  Monday December 22, 2014

Station Historical Data
Daily Summary for January 18, 2012 Units:  Both    English   Metric
« Previous Day
Next Day »
Daily Weekly Monthly Yearly Custom
  High: Low: Average:
Temperature: 41.0 °F /  5 °C 2.3 °F /  -16.5 °C 18 °F /  -7.8 °C
Dew Point: 37.4 °F /  3 °C -3.6 °F /  -19.8 °C 8.7 °F /  -12.9 °C
Humidity: 90% 55% 67%
Wind Speed: 21.0mph /  33.8km/h - 8.6mph /  13.8km/h
Wind Gust: 39.0mph /  62.8km/h - -
Wind- - WNW
Pressure: 30.19 in /  1022.2 hPa 29.22 in /  989.4 hPa -
Precipitation: 0.00 in /  0 mm    
Historical Graphs
 
 
Tabular Data for January 18, 2012
Time Temperature Dew Point Pressure Wind Wind Speed Wind Gust Humidity Daily Rainfall
00:05 40.0 °F /  4.4 °C 37.3 °F /  2.9 °C 29.22in /  989.4hPa SSW 9.0mph /  14.5km/h 15.0mph /  24.1km/h 90% 0.00in /  0mm
00:10 40.0 °F /  4.4 °C 37.3 °F /  2.9 °C 29.22in /  989.4hPa SSW 8.0mph /  12.9km/h 19.0mph /  30.6km/h 90% 0.00in /  0mm
00:15 40.1 °F /  4.5 °C 37.4 °F /  3 °C 29.22in /  989.4hPa SSW 13.0mph /  20.9km/h 20.0mph /  32.2km/h 90% 0.00in /  0mm
00:20 40.1 °F /  4.5 °C 37.4 °F /  3 °C 29.22in /  989.4hPa SW 9.0mph /  14.5km/h 23.0mph /  37km/h 90% 0.00in /  0mm
00:25 39.9 °F /  4.4 °C 37.2 °F /  2.9 °C 29.22in /  989.4hPa SSW 7.0mph /  11.3km/h 23.0mph /  37km/h 90% 0.00in /  0mm
00:35 39.8 °F /  4.3 °C 37.1 °F /  2.8 °C 29.23in /  989.7hPa SW 7.0mph /  11.3km/h 19.0mph /  30.6km/h 90% 0.00in /  0mm
00:40 39.8 °F /  4.3 °C 36.8 °F /  2.7 °C 29.24in /  990.1hPa SW 9.0mph /  14.5km/h 19.0mph /  30.6km/h 89% 0.00in /  0mm
00:45 39.7 °F /  4.3 °C 36.7 °F /  2.6 °C 29.24in /  990.1hPa SW 9.0mph /  14.5km/h 17.0mph /  27.4km/h 89% 0.00in /  0mm
00:50 39.6 °F /  4.2 °C 36.6 °F /  2.6 °C 29.25in /  990.4hPa SW 9.0mph /  14.5km/h 15.0mph /  24.1km/h 89% 0.00in /  0mm
00:55 39.6 °F /  4.2 °C 36.6 °F /  2.6 °C 29.26in /  990.7hPa SW 9.0mph /  14.5km/h 18.0mph /  29km/h 89% 0.00in /  0mm
01:00 39.6 °F /  4.2 °C 36.6 °F /  2.6 °C 29.26in /  990.7hPa SW 3.0mph /  4.8km/h 18.0mph /  29km/h 89% 0.00in /  0mm
01:05 39.6 °F /  4.2 °C 36.3 °F /  2.4 °C 29.26in /  990.7hPa WSW 7.0mph /  11.3km/h 13.0mph /  20.9km/h 88% 0.00in /  0mm
01:10 39.5 °F /  4.2 °C 36.0 °F /  2.2 °C 29.26in /  990.7hPa SW 6.0mph /  9.7km/h 13.0mph /  20.9km/h 87% 0.00in /  0mm
01:15 39.3 °F /  4.1 °C 35.8 °F /  2.1 °C 29.27in /  991.1hPa SW 3.0mph /  4.8km/h 13.0mph /  20.9km/h 87% 0.00in /  0mm
01:20 39.4 °F /  4.1 °C 35.3 °F /  1.8 °C 29.27in /  991.1hPa WSW 13.0mph /  20.9km/h 26.0mph /  41.8km/h 85% 0.00in /  0mm
01:25 40.4 °F /  4.7 °C 33.8 °F /  1 °C 29.27in /  991.1hPa WSW 14.0mph /  22.5km/h 29.0mph /  46.7km/h 77% 0.00in /  0mm
01:30 41.0 °F /  5 °C 34.0 °F /  1.1 °C 29.29in /  991.8hPa West 15.0mph /  24.1km/h 29.0mph /  46.7km/h 76% 0.00in /  0mm
01:35 40.8 °F /  4.9 °C 31.8 °F /  -0.1 °C 29.30in /  992.1hPa WSW 17.0mph /  27.4km/h 29.0mph /  46.7km/h 70% 0.00in /  0mm
01:40 40.2 °F /  4.6 °C 29.8 °F /  -1.2 °C 29.30in /  992.1hPa West 18.0mph /  29km/h 31.0mph /  49.9km/h 66% 0.00in /  0mm
01:50 39.3 °F /  4.1 °C 28.9 °F /  -1.7 °C 29.31in /  992.4hPa West 15.0mph /  24.1km/h 36.0mph /  57.9km/h 66% 0.00in /  0mm
01:55 39.1 °F /  3.9 °C 29.1 °F /  -1.6 °C 29.32in /  992.8hPa West 14.0mph /  22.5km/h 36.0mph /  57.9km/h 67% 0.00in /  0mm
02:00 38.9 °F /  3.8 °C 29.6 °F /  -1.3 °C 29.32in /  992.8hPa West 14.0mph /  22.5km/h 30.0mph /  48.3km/h 69% 0.00in /  0mm
02:05 38.8 °F /  3.8 °C 28.0 °F /  -2.2 °C 29.33in /  993.1hPa West 21.0mph /  33.8km/h 39.0mph /  62.8km/h 65% 0.00in /  0mm
02:10 38.6 °F /  3.7 °C 27.9 °F /  -2.3 °C 29.33in /  993.1hPa WSW 17.0mph /  27.4km/h 39.0mph /  62.8km/h 65% 0.00in /  0mm
02:15 38.2 °F /  3.4 °C 27.1 °F /  -2.7 °C 29.34in /  993.5hPa WSW 18.0mph /  29km/h 34.0mph /  54.7km/h 64% 0.00in /  0mm
02:20 37.6 °F /  3.1 °C 26.5 °F /  -3.1 °C 29.35in /  993.8hPa WSW 20.0mph /  32.2km/h 32.0mph /  51.5km/h 64% 0.00in /  0mm
02:25 36.9 °F /  2.7 °C 25.9 °F /  -3.4 °C 29.35in /  993.8hPa West 18.0mph /  29km/h 33.0mph /  53.1km/h 64% 0.00in /  0mm
02:30 36.5 °F /  2.5 °C 25.5 °F /  -3.6 °C 29.36in /  994.1hPa WSW 13.0mph /  20.9km/h 33.0mph /  53.1km/h 64% 0.00in /  0mm
02:35 36.2 °F /  2.3 °C 24.8 °F /  -4 °C 29.35in /  993.8hPa WSW 17.0mph /  27.4km/h 34.0mph /  54.7km/h 63% 0.00in /  0mm
02:40 35.9 °F /  2.2 °C 24.5 °F /  -4.2 °C 29.37in /  994.5hPa WSW 16.0mph /  25.7km/h 34.0mph /  54.7km/h 63% 0.00in /  0mm
02:45 35.6 °F /  2 °C 24.2 °F /  -4.3 °C 29.38in /  994.8hPa West 18.0mph /  29km/h 33.0mph /  53.1km/h 63% 0.00in /  0mm
02:50 35.3 °F /  1.8 °C 24.3 °F /  -4.3 °C 29.38in /  994.8hPa WSW 14.0mph /  22.5km/h 32.0mph /  51.5km/h 64% 0.00in /  0mm
02:55 35.0 °F /  1.7 °C 24.4 °F /  -4.2 °C 29.39in /  995.1hPa WSW 10.0mph /  16.1km/h 30.0mph /  48.3km/h 65% 0.00in /  0mm
03:00 34.7 °F /  1.5 °C 24.5 °F /  -4.2 °C 29.39in /  995.1hPa West 9.0mph /  14.5km/h 25.0mph /  40.2km/h 66% 0.00in /  0mm
03:05 34.4 °F /  1.3 °C 23.9 °F /  -4.5 °C 29.40in /  995.5hPa West 11.0mph /  17.7km/h 25.0mph /  40.2km/h 65% 0.00in /  0mm
03:10 34.1 °F /  1.2 °C 23.9 °F /  -4.5 °C 29.40in /  995.5hPa WSW 10.0mph /  16.1km/h 22.0mph /  35.4km/h 66% 0.00in /  0mm
03:15 33.7 °F /  0.9 °C 23.2 °F /  -4.9 °C 29.41in /  995.8hPa West 13.0mph /  20.9km/h 28.0mph /  45.1km/h 65% 0.00in /  0mm
03:20 33.3 °F /  0.7 °C 23.2 °F /  -4.9 °C 29.41in /  995.8hPa WSW 15.0mph /  24.1km/h 28.0mph /  45.1km/h 66% 0.00in /  0mm
03:25 33.0 °F /  0.6 °C 23.2 °F /  -4.9 °C 29.42in /  996.2hPa WSW 8.0mph /  12.9km/h 23.0mph /  37km/h 67% 0.00in /  0mm
03:30 32.6 °F /  0.3 °C 23.2 °F /  -4.9 °C 29.43in /  996.5hPa West 10.0mph /  16.1km/h 24.0mph /  38.6km/h 68% 0.00in /  0mm
03:40 32.0 °F /  0 °C 21.9 °F /  -5.6 °C 29.44in /  996.8hPa WSW 16.0mph /  25.7km/h 32.0mph /  51.5km/h 66% 0.00in /  0mm
03:45 31.8 °F /  -0.1 °C 21.7 °F /  -5.7 °C 29.44in /  996.8hPa WSW 11.0mph /  17.7km/h 28.0mph /  45.1km/h 66% 0.00in /  0mm
03:50 31.5 °F /  -0.3 °C 20.7 °F /  -6.3 °C 29.45in /  997.2hPa WSW 12.0mph /  19.3km/h 28.0mph /  45.1km/h 64% 0.00in /  0mm
04:00 30.6 °F /  -0.8 °C 20.2 °F /  -6.6 °C 29.47in /  997.9hPa WSW 12.0mph /  19.3km/h 27.0mph /  43.5km/h 65% 0.00in /  0mm
04:05 30.0 °F /  -1.1 °C 19.7 °F /  -6.8 °C 29.48in /  998.2hPa WSW 13.0mph /  20.9km/h 23.0mph /  37km/h 65% 0.00in /  0mm
04:10 29.7 °F /  -1.3 °C 19.7 °F /  -6.8 °C 29.48in /  998.2hPa WSW 13.0mph /  20.9km/h 23.0mph /  37km/h 66% 0.00in /  0mm
04:15 29.3 °F /  -1.5 °C 18.3 °F /  -7.6 °C 29.49in /  998.5hPa WSW 17.0mph /  27.4km/h 31.0mph /  49.9km/h 63% 0.00in /  0mm
04:20 29.0 °F /  -1.7 °C 18.3 °F /  -7.6 °C 29.50in /  998.9hPa WSW 15.0mph /  24.1km/h 31.0mph /  49.9km/h 64% 0.00in /  0mm
04:25 28.8 °F /  -1.8 °C 18.2 °F /  -7.7 °C 29.50in /  998.9hPa West 12.0mph /  19.3km/h 29.0mph /  46.7km/h 64% 0.00in /  0mm
04:30 28.7 °F /  -1.8 °C 18.1 °F /  -7.7 °C 29.51in /  999.2hPa West 9.0mph /  14.5km/h 22.0mph /  35.4km/h 64% 0.00in /  0mm
04:40 28.4 °F /  -2 °C 18.5 °F /  -7.5 °C 29.52in /  999.5hPa WSW 8.0mph /  12.9km/h 17.0mph /  27.4km/h 66% 0.00in /  0mm
04:45 28.2 °F /  -2.1 °C 18.7 °F /  -7.4 °C 29.53in /  999.9hPa WSW 7.0mph /  11.3km/h 19.0mph /  30.6km/h 67% 0.00in /  0mm
04:50 28.0 °F /  -2.2 °C 18.5 °F /  -7.5 °C 29.54in /  1000.2hPa WSW 8.0mph /  12.9km/h 19.0mph /  30.6km/h 67% 0.00in /  0mm
04:55 27.9 °F /  -2.3 °C 18.7 °F /  -7.4 °C 29.54in /  1000.2hPa WSW 8.0mph /  12.9km/h 20.0mph /  32.2km/h 68% 0.00in /  0mm
05:00 27.7 °F /  -2.4 °C 18.2 °F /  -7.7 °C 29.55in /  1000.6hPa West 10.0mph /  16.1km/h 20.0mph /  32.2km/h 67% 0.00in /  0mm
05:05 27.5 °F /  -2.5 °C 18.0 °F /  -7.8 °C 29.55in /  1000.6hPa WSW 8.0mph /  12.9km/h 18.0mph /  29km/h 67% 0.00in /  0mm
05:10 27.4 °F /  -2.6 °C 17.9 °F /  -7.8 °C 29.55in /  1000.6hPa WSW 9.0mph /  14.5km/h 18.0mph /  29km/h 67% 0.00in /  0mm
05:15 27.1 °F /  -2.7 °C 17.6 °F /  -8 °C 29.56in /  1000.9hPa WSW 12.0mph /  19.3km/h 20.0mph /  32.2km/h 67% 0.00in /  0mm
05:20 26.9 °F /  -2.8 °C 16.3 °F /  -8.7 °C 29.57in /  1001.2hPa West 12.0mph /  19.3km/h 25.0mph /  40.2km/h 64% 0.00in /  0mm
05:25 26.7 °F /  -2.9 °C 16.2 °F /  -8.8 °C 29.57in /  1001.2hPa West 10.0mph /  16.1km/h 25.0mph /  40.2km/h 64% 0.00in /  0mm
05:30 26.6 °F /  -3 °C 16.1 °F /  -8.8 °C 29.57in /  1001.2hPa West 12.0mph /  19.3km/h 26.0mph /  41.8km/h 64% 0.00in /  0mm
05:35 26.3 °F /  -3.2 °C 15.8 °F /  -9 °C 29.57in /  1001.2hPa West 10.0mph /  16.1km/h 26.0mph /  41.8km/h 64% 0.00in /  0mm
05:40 26.2 °F /  -3.2 °C 16.4 °F /  -8.7 °C 29.58in /  1001.6hPa West 12.0mph /  19.3km/h 25.0mph /  40.2km/h 66% 0.00in /  0mm
05:45 26.0 °F /  -3.3 °C 16.9 °F /  -8.4 °C 29.58in /  1001.6hPa WSW 10.0mph /  16.1km/h 18.0mph /  29km/h 68% 0.00in /  0mm
05:50 25.8 °F /  -3.4 °C 16.7 °F /  -8.5 °C 29.58in /  1001.6hPa West 11.0mph /  17.7km/h 25.0mph /  40.2km/h 68% 0.00in /  0mm
05:55 25.7 °F /  -3.5 °C 16.6 °F /  -8.6 °C 29.58in /  1001.6hPa West 10.0mph /  16.1km/h 25.0mph /  40.2km/h 68% 0.00in /  0mm
06:00 25.4 °F /  -3.7 °C 16.0 °F /  -8.9 °C 29.59in /  1001.9hPa WSW 14.0mph /  22.5km/h 23.0mph /  37km/h 67% 0.00in /  0mm
06:05 25.1 °F /  -3.8 °C 15.3 °F /  -9.3 °C 29.60in /  1002.3hPa West 12.0mph /  19.3km/h 24.0mph /  38.6km/h 66% 0.00in /  0mm
06:15 24.7 °F /  -4.1 °C 15.3 °F /  -9.3 °C 29.61in /  1002.6hPa West 13.0mph /  20.9km/h 26.0mph /  41.8km/h 67% 0.00in /  0mm
06:20 24.5 °F /  -4.2 °C 15.5 °F /  -9.2 °C 29.62in /  1002.9hPa West 11.0mph /  17.7km/h 26.0mph /  41.8km/h 68% 0.00in /  0mm
06:25 24.3 °F /  -4.3 °C 14.2 °F /  -9.9 °C 29.63in /  1003.3hPa West 15.0mph /  24.1km/h 24.0mph /  38.6km/h 65% 0.00in /  0mm
06:30 23.8 °F /  -4.6 °C 13.8 °F /  -10.1 °C 29.64in /  1003.6hPa WNW 15.0mph /  24.1km/h 28.0mph /  45.1km/h 65% 0.00in /  0mm
06:35 23.4 °F /  -4.8 °C 13.4 °F /  -10.3 °C 29.64in /  1003.6hPa WNW 15.0mph /  24.1km/h 28.0mph /  45.1km/h 65% 0.00in /  0mm
06:45 22.5 °F /  -5.3 °C 12.9 °F /  -10.6 °C 29.64in /  1003.6hPa West 19.0mph /  30.6km/h 31.0mph /  49.9km/h 66% 0.00in /  0mm
06:50 22.2 °F /  -5.4 °C 12.2 °F /  -11 °C 29.64in /  1003.6hPa WNW 16.0mph /  25.7km/h 31.0mph /  49.9km/h 65% 0.00in /  0mm
06:55 21.8 °F /  -5.7 °C 11.8 °F /  -11.2 °C 29.64in /  1003.6hPa West 17.0mph /  27.4km/h 30.0mph /  48.3km/h 65% 0.00in /  0mm
07:00 21.3 °F /  -5.9 °C 11.0 °F /  -11.7 °C 29.64in /  1003.6hPa WNW 19.0mph /  30.6km/h 30.0mph /  48.3km/h 64% 0.00in /  0mm
07:05 20.9 °F /  -6.2 °C 10.6 °F /  -11.9 °C 29.65in /  1003.9hPa WNW 14.0mph /  22.5km/h 28.0mph /  45.1km/h 64% 0.00in /  0mm
07:10 20.6 °F /  -6.3 °C 10.0 °F /  -12.2 °C 29.66in /  1004.3hPa WNW 11.0mph /  17.7km/h 28.0mph /  45.1km/h 63% 0.00in /  0mm
07:15 20.4 °F /  -6.4 °C 10.2 °F /  -12.1 °C 29.67in /  1004.6hPa NW 8.0mph /  12.9km/h 26.0mph /  41.8km/h 64% 0.00in /  0mm
07:20 20.4 °F /  -6.4 °C 10.2 °F /  -12.1 °C 29.68in /  1005hPa WNW 6.0mph /  9.7km/h 26.0mph /  41.8km/h 64% 0.00in /  0mm
07:25 20.4 °F /  -6.4 °C 10.2 °F /  -12.1 °C 29.69in /  1005.3hPa WNW 1.0mph /  1.6km/h 16.0mph /  25.7km/h 64% 0.00in /  0mm
07:30 20.3 °F /  -6.5 °C 10.4 °F /  -12 °C 29.70in /  1005.6hPa WNW 5.0mph /  8km/h 15.0mph /  24.1km/h 65% 0.00in /  0mm
07:35 20.2 °F /  -6.6 °C 10.3 °F /  -12.1 °C 29.70in /  1005.6hPa NW 8.0mph /  12.9km/h 17.0mph /  27.4km/h 65% 0.00in /  0mm
07:40 19.9 °F /  -6.7 °C 9.7 °F /  -12.4 °C 29.70in /  1005.6hPa West 9.0mph /  14.5km/h 18.0mph /  29km/h 64% 0.00in /  0mm
07:45 19.7 °F /  -6.8 °C 9.5 °F /  -12.5 °C 29.71in /  1006hPa WNW 13.0mph /  20.9km/h 23.0mph /  37km/h 64% 0.00in /  0mm
07:50 19.1 °F /  -7.2 °C 9.3 °F /  -12.6 °C 29.70in /  1005.6hPa WNW 9.0mph /  14.5km/h 23.0mph /  37km/h 65% 0.00in /  0mm
07:55 18.8 °F /  -7.3 °C 8.6 °F /  -13 °C 29.71in /  1006hPa WNW 17.0mph /  27.4km/h 23.0mph /  37km/h 64% 0.00in /  0mm
08:00 18.5 °F /  -7.5 °C 8.7 °F /  -12.9 °C 29.70in /  1005.6hPa WNW 15.0mph /  24.1km/h 23.0mph /  37km/h 65% 0.00in /  0mm
08:05 18.3 °F /  -7.6 °C 8.5 °F /  -13.1 °C 29.70in /  1005.6hPa WNW 16.0mph /  25.7km/h 27.0mph /  43.5km/h 65% 0.00in /  0mm
08:10 18.1 °F /  -7.7 °C 8.3 °F /  -13.2 °C 29.71in /  1006hPa West 13.0mph /  20.9km/h 27.0mph /  43.5km/h 65% 0.00in /  0mm
08:15 18.0 °F /  -7.8 °C 8.2 °F /  -13.2 °C 29.71in /  1006hPa WNW 15.0mph /  24.1km/h 23.0mph /  37km/h 65% 0.00in /  0mm
08:25 17.7 °F /  -7.9 °C 7.6 °F /  -13.6 °C 29.72in /  1006.3hPa West 13.0mph /  20.9km/h 26.0mph /  41.8km/h 64% 0.00in /  0mm
08:30 17.6 °F /  -8 °C 7.8 °F /  -13.4 °C 29.73in /  1006.7hPa WNW 12.0mph /  19.3km/h 20.0mph /  32.2km/h 65% 0.00in /  0mm
08:35 17.5 °F /  -8.1 °C 7.7 °F /  -13.5 °C 29.73in /  1006.7hPa WNW 15.0mph /  24.1km/h 20.0mph /  32.2km/h 65% 0.00in /  0mm
08:40 17.4 °F /  -8.1 °C 8.0 °F /  -13.3 °C 29.74in /  1007hPa WNW 9.0mph /  14.5km/h 20.0mph /  32.2km/h 66% 0.00in /  0mm
08:50 17.3 °F /  -8.2 °C 7.9 °F /  -13.4 °C 29.74in /  1007hPa WNW 9.0mph /  14.5km/h 19.0mph /  30.6km/h 66% 0.00in /  0mm
08:55 17.3 °F /  -8.2 °C 8.2 °F /  -13.2 °C 29.75in /  1007.3hPa NW 7.0mph /  11.3km/h 18.0mph /  29km/h 67% 0.00in /  0mm
09:00 16.8 °F /  -8.4 °C 7.4 °F /  -13.7 °C 29.76in /  1007.7hPa NW 8.0mph /  12.9km/h 18.0mph /  29km/h 66% 0.00in /  0mm
09:05 16.4 °F /  -8.7 °C 7.0 °F /  -13.9 °C 29.76in /  1007.7hPa NW 9.0mph /  14.5km/h 20.0mph /  32.2km/h 66% 0.00in /  0mm
09:10 16.1 °F /  -8.8 °C 6.7 °F /  -14.1 °C 29.76in /  1007.7hPa NW 13.0mph /  20.9km/h 20.0mph /  32.2km/h 66% 0.00in /  0mm
09:15 15.8 °F /  -9 °C 6.1 °F /  -14.4 °C 29.77in /  1008hPa NW 10.0mph /  16.1km/h 20.0mph /  32.2km/h 65% 0.00in /  0mm
09:20 15.5 °F /  -9.2 °C 5.8 °F /  -14.6 °C 29.77in /  1008hPa WNW 11.0mph /  17.7km/h 23.0mph /  37km/h 65% 0.00in /  0mm
09:25 15.5 °F /  -9.2 °C 6.2 °F /  -14.3 °C 29.78in /  1008.4hPa NW 8.0mph /  12.9km/h 24.0mph /  38.6km/h 66% 0.00in /  0mm
09:35 14.9 °F /  -9.5 °C 5.3 °F /  -14.8 °C 29.79in /  1008.7hPa NW 7.0mph /  11.3km/h 24.0mph /  38.6km/h 65% 0.00in /  0mm
09:45 14.5 °F /  -9.7 °C 4.9 °F /  -15.1 °C 29.81in /  1009.4hPa NW 11.0mph /  17.7km/h 28.0mph /  45.1km/h 65% 0.00in /  0mm
09:50 14.4 °F /  -9.8 °C 4.4 °F /  -15.3 °C 29.81in /  1009.4hPa NW 11.0mph /  17.7km/h 23.0mph /  37km/h 64% 0.00in /  0mm
09:55 14.6 °F /  -9.7 °C 4.6 °F /  -15.2 °C 29.81in /  1009.4hPa WNW 16.0mph /  25.7km/h 27.0mph /  43.5km/h 64% 0.00in /  0mm
10:00 14.5 °F /  -9.7 °C 4.5 °F /  -15.3 °C 29.82in /  1009.7hPa WNW 16.0mph /  25.7km/h 27.0mph /  43.5km/h 64% 0.00in /  0mm
10:05 14.4 °F /  -9.8 °C 4.4 °F /  -15.3 °C 29.82in /  1009.7hPa WNW 13.0mph /  20.9km/h 25.0mph /  40.2km/h 64% 0.00in /  0mm
10:10 14.4 °F /  -9.8 °C 4.4 °F /  -15.3 °C 29.82in /  1009.7hPa WNW 17.0mph /  27.4km/h 22.0mph /  35.4km/h 64% 0.00in /  0mm
10:15 14.4 °F /  -9.8 °C 4.4 °F /  -15.3 °C 29.83in /  1010hPa NW 7.0mph /  11.3km/h 24.0mph /  38.6km/h 64% 0.00in /  0mm
10:20 14.6 °F /  -9.7 °C 4.6 °F /  -15.2 °C 29.83in /  1010hPa WNW 12.0mph /  19.3km/h 24.0mph /  38.6km/h 64% 0.00in /  0mm
10:24 14.3 °F /  -9.8 °C 4.3 °F /  -15.4 °C 29.84in /  1010.4hPa WNW 9.0mph /  14.5km/h 23.0mph /  37km/h 64% 0.00in /  0mm
10:30 14.3 °F /  -9.8 °C 4.3 °F /  -15.4 °C 29.85in /  1010.7hPa NW 7.0mph /  11.3km/h 23.0mph /  37km/h 64% 0.00in /  0mm
10:35 14.3 °F /  -9.8 °C 4.3 °F /  -15.4 °C 29.86in /  1011.1hPa WNW 7.0mph /  11.3km/h 17.0mph /  27.4km/h 64% 0.00in /  0mm
10:40 14.2 °F /  -9.9 °C 4.6 °F /  -15.2 °C 29.86in /  1011.1hPa WNW 5.0mph /  8km/h 15.0mph /  24.1km/h 65% 0.00in /  0mm
10:45 14.3 °F /  -9.8 °C 4.7 °F /  -15.2 °C 29.86in /  1011.1hPa WNW 8.0mph /  12.9km/h 15.0mph /  24.1km/h 65% 0.00in /  0mm
10:50 14.2 °F /  -9.9 °C 4.6 °F /  -15.2 °C 29.87in /  1011.4hPa WNW 7.0mph /  11.3km/h 14.0mph /  22.5km/h 65% 0.00in /  0mm
10:55 14.1 °F /  -9.9 °C 4.5 °F /  -15.3 °C 29.87in /  1011.4hPa WNW 5.0mph /  8km/h 14.0mph /  22.5km/h 65% 0.00in /  0mm
11:00 14.1 °F /  -9.9 °C 4.5 °F /  -15.3 °C 29.87in /  1011.4hPa WNW 9.0mph /  14.5km/h 15.0mph /  24.1km/h 65% 0.00in /  0mm
11:05 14.3 °F /  -9.8 °C 4.3 °F /  -15.4 °C 29.87in /  1011.4hPa NW 4.0mph /  6.4km/h 15.0mph /  24.1km/h 64% 0.00in /  0mm
11:10 14.4 °F /  -9.8 °C 4.8 °F /  -15.1 °C 29.87in /  1011.4hPa NW 4.0mph /  6.4km/h 11.0mph /  17.7km/h 65% 0.00in /  0mm
11:15 14.4 °F /  -9.8 °C 4.4 °F /  -15.3 °C 29.88in /  1011.7hPa West 1.0mph /  1.6km/h 9.0mph /  14.5km/h 64% 0.00in /  0mm
11:20 14.2 °F /  -9.9 °C 4.3 °F /  -15.4 °C 29.88in /  1011.7hPa NW 5.0mph /  8km/h 14.0mph /  22.5km/h 64% 0.00in /  0mm
11:24 14.0 °F /  -10 °C 4.1 °F /  -15.5 °C 29.88in /  1011.7hPa NW 3.0mph /  4.8km/h 14.0mph /  22.5km/h 64% 0.00in /  0mm
11:30 13.9 °F /  -10.1 °C 4.0 °F /  -15.6 °C 29.89in /  1012.1hPa WNW 3.0mph /  4.8km/h 12.0mph /  19.3km/h 64% 0.00in /  0mm
11:35 14.1 °F /  -9.9 °C 4.2 °F /  -15.4 °C 29.89in /  1012.1hPa WNW 6.0mph /  9.7km/h 12.0mph /  19.3km/h 64% 0.00in /  0mm
11:45 14.2 °F /  -9.9 °C 3.9 °F /  -15.6 °C 29.89in /  1012.1hPa NW 6.0mph /  9.7km/h 13.0mph /  20.9km/h 63% 0.00in /  0mm
11:50 14.2 °F /  -9.9 °C 3.9 °F /  -15.6 °C 29.89in /  1012.1hPa NW 5.0mph /  8km/h 13.0mph /  20.9km/h 63% 0.00in /  0mm
11:55 14.1 °F /  -9.9 °C 3.8 °F /  -15.7 °C 29.89in /  1012.1hPa West 7.0mph /  11.3km/h 11.0mph /  17.7km/h 63% 0.00in /  0mm
12:00 14.3 °F /  -9.8 °C 4.0 °F /  -15.6 °C 29.90in /  1012.4hPa NW 3.0mph /  4.8km/h 11.0mph /  17.7km/h 63% 0.00in /  0mm
12:05 14.4 °F /  -9.8 °C 4.1 °F /  -15.5 °C 29.90in /  1012.4hPa WNW 7.0mph /  11.3km/h 13.0mph /  20.9km/h 63% 0.00in /  0mm
12:10 14.2 °F /  -9.9 °C 3.9 °F /  -15.6 °C 29.90in /  1012.4hPa NW 5.0mph /  8km/h 14.0mph /  22.5km/h 63% 0.00in /  0mm
12:15 14.3 °F /  -9.8 °C 4.0 °F /  -15.6 °C 29.90in /  1012.4hPa NW 6.0mph /  9.7km/h 14.0mph /  22.5km/h 63% 0.00in /  0mm
12:20 14.6 °F /  -9.7 °C 4.6 °F /  -15.2 °C 29.90in /  1012.4hPa NNW 1.0mph /  1.6km/h 10.0mph /  16.1km/h 64% 0.00in /  0mm
12:25 14.9 °F /  -9.5 °C 4.6 °F /  -15.2 °C 29.90in /  1012.4hPa North 1.0mph /  1.6km/h 7.0mph /  11.3km/h 63% 0.00in /  0mm
12:30 14.9 °F /  -9.5 °C 4.2 °F /  -15.4 °C 29.90in /  1012.4hPa NW 5.0mph /  8km/h 10.0mph /  16.1km/h 62% 0.00in /  0mm
12:39 14.9 °F /  -9.5 °C 4.2 °F /  -15.4 °C 29.91in /  1012.8hPa NNW 3.0mph /  4.8km/h 9.0mph /  14.5km/h 62% 0.00in /  0mm
12:45 14.9 °F /  -9.5 °C 4.2 °F /  -15.4 °C 29.91in /  1012.8hPa NW 3.0mph /  4.8km/h 11.0mph /  17.7km/h 62% 0.00in /  0mm
12:50 14.6 °F /  -9.7 °C 3.9 °F /  -15.6 °C 29.91in /  1012.8hPa NNW 5.0mph /  8km/h 11.0mph /  17.7km/h 62% 0.00in /  0mm
12:54 14.7 °F /  -9.6 °C 4.0 °F /  -15.6 °C 29.91in /  1012.8hPa NNW 4.0mph /  6.4km/h 11.0mph /  17.7km/h 62% 0.00in /  0mm
13:00 14.6 °F /  -9.7 °C 3.9 °F /  -15.6 °C 29.92in /  1013.1hPa NW 5.0mph /  8km/h 11.0mph /  17.7km/h 62% 0.00in /  0mm
13:05 14.5 °F /  -9.7 °C 3.8 °F /  -15.7 °C 29.92in /  1013.1hPa NW 5.0mph /  8km/h 11.0mph /  17.7km/h 62% 0.00in /  0mm
13:10 14.5 °F /  -9.7 °C 3.8 °F /  -15.7 °C 29.92in /  1013.1hPa NNW 4.0mph /  6.4km/h 9.0mph /  14.5km/h 62% 0.00in /  0mm
13:15 14.5 °F /  -9.7 °C 3.5 °F /  -15.8 °C 29.92in /  1013.1hPa NNW 6.0mph /  9.7km/h 13.0mph /  20.9km/h 61% 0.00in /  0mm
13:20 14.3 °F /  -9.8 °C 3.3 °F /  -15.9 °C 29.93in /  1013.4hPa NW 8.0mph /  12.9km/h 13.0mph /  20.9km/h 61% 0.00in /  0mm
13:25 14.5 °F /  -9.7 °C 3.5 °F /  -15.8 °C 29.92in /  1013.1hPa NW 5.0mph /  8km/h 14.0mph /  22.5km/h 61% 0.00in /  0mm
13:30 15.0 °F /  -9.4 °C 4.0 °F /  -15.6 °C 29.92in /  1013.1hPa NNW 6.0mph /  9.7km/h 14.0mph /  22.5km/h 61% 0.00in /  0mm
13:35 15.7 °F /  -9.1 °C 4.3 °F /  -15.4 °C 29.93in /  1013.4hPa North 2.0mph /  3.2km/h 13.0mph /  20.9km/h 60% 0.00in /  0mm
13:40 15.9 °F /  -8.9 °C 3.3 °F /  -15.9 °C 29.93in /  1013.4hPa NW 5.0mph /  8km/h 14.0mph /  22.5km/h 57% 0.00in /  0mm
13:45 15.6 °F /  -9.1 °C 3.1 °F /  -16.1 °C 29.94in /  1013.8hPa NW 3.0mph /  4.8km/h 14.0mph /  22.5km/h 57% 0.00in /  0mm
13:55 15.9 °F /  -8.9 °C 3.3 °F /  -15.9 °C 29.94in /  1013.8hPa NNW 5.0mph /  8km/h 15.0mph /  24.1km/h 57% 0.00in /  0mm
13:59 16.0 °F /  -8.9 °C 3.4 °F /  -15.9 °C 29.95in /  1014.1hPa NNW 4.0mph /  6.4km/h 15.0mph /  24.1km/h 57% 0.00in /  0mm
14:05 15.9 °F /  -8.9 °C 3.0 °F /  -16.1 °C 29.95in /  1014.1hPa NNW 7.0mph /  11.3km/h 15.0mph /  24.1km/h 56% 0.00in /  0mm
14:10 16.1 °F /  -8.8 °C 3.2 °F /  -16 °C 29.95in /  1014.1hPa NW 5.0mph /  8km/h 15.0mph /  24.1km/h 56% 0.00in /  0mm
14:15 16.2 °F /  -8.8 °C 3.2 °F /  -16 °C 29.95in /  1014.1hPa NW 6.0mph /  9.7km/h 14.0mph /  22.5km/h 56% 0.00in /  0mm
14:19 16.2 °F /  -8.8 °C 3.6 °F /  -15.8 °C 29.95in /  1014.1hPa NNW 6.0mph /  9.7km/h 14.0mph /  22.5km/h 57% 0.00in /  0mm
14:25 15.9 °F /  -8.9 °C 2.6 °F /  -16.3 °C 29.96in /  1014.4hPa NW 8.0mph /  12.9km/h 14.0mph /  22.5km/h 55% 0.00in /  0mm
14:30 15.8 °F /  -9 °C 2.9 °F /  -16.2 °C 29.96in /  1014.4hPa NNW 5.0mph /  8km/h 15.0mph /  24.1km/h 56% 0.00in /  0mm
14:40 15.5 °F /  -9.2 °C 2.2 °F /  -16.6 °C 29.97in /  1014.8hPa NW 6.0mph /  9.7km/h 19.0mph /  30.6km/h 55% 0.00in /  0mm
14:45 15.3 °F /  -9.3 °C 2.0 °F /  -16.7 °C 29.97in /  1014.8hPa NNW 10.0mph /  16.1km/h 20.0mph /  32.2km/h 55% 0.00in /  0mm
14:55 15.0 °F /  -9.4 °C 1.7 °F /  -16.8 °C 29.99in /  1015.5hPa NNW 7.0mph /  11.3km/h 20.0mph /  32.2km/h 55% 0.00in /  0mm
15:05 14.8 °F /  -9.6 °C 1.5 °F /  -16.9 °C 29.99in /  1015.5hPa NW 7.0mph /  11.3km/h 18.0mph /  29km/h 55% 0.00in /  0mm
15:10 14.8 °F /  -9.6 °C 1.9 °F /  -16.7 °C 29.99in /  1015.5hPa NNW 6.0mph /  9.7km/h 18.0mph /  29km/h 56% 0.00in /  0mm
15:15 14.6 °F /  -9.7 °C 1.4 °F /  -17 °C 29.99in /  1015.5hPa NW 7.0mph /  11.3km/h 17.0mph /  27.4km/h 55% 0.00in /  0mm
15:19 14.5 °F /  -9.7 °C 1.6 °F /  -16.9 °C 29.99in /  1015.5hPa NNW 6.0mph /  9.7km/h 17.0mph /  27.4km/h 56% 0.00in /  0mm
15:25 14.2 °F /  -9.9 °C 1.0 °F /  -17.2 °C 30.00in /  1015.8hPa NW 9.0mph /  14.5km/h 15.0mph /  24.1km/h 55% 0.00in /  0mm
15:30 14.3 °F /  -9.8 °C 1.5 °F /  -16.9 °C 30.00in /  1015.8hPa NW 5.0mph /  8km/h 15.0mph /  24.1km/h 56% 0.00in /  0mm
15:35 14.3 °F /  -9.8 °C 1.5 °F /  -16.9 °C 30.00in /  1015.8hPa NNW 5.0mph /  8km/h 14.0mph /  22.5km/h 56% 0.00in /  0mm
15:45 14.3 °F /  -9.8 °C 1.5 °F /  -16.9 °C 30.01in /  1016.1hPa NNW 6.0mph /  9.7km/h 14.0mph /  22.5km/h 56% 0.00in /  0mm
15:50 14.2 °F /  -9.9 °C 1.4 °F /  -17 °C 30.01in /  1016.1hPa NNW 5.0mph /  8km/h 14.0mph /  22.5km/h 56% 0.00in /  0mm
16:00 13.6 °F /  -10.2 °C 0.8 °F /  -17.3 °C 30.02in /  1016.5hPa North 1.0mph /  1.6km/h 16.0mph /  25.7km/h 56% 0.00in /  0mm
16:05 13.5 °F /  -10.3 °C 0.7 °F /  -17.4 °C 30.02in /  1016.5hPa NNW 3.0mph /  4.8km/h 13.0mph /  20.9km/h 56% 0.00in /  0mm
16:09 13.2 °F /  -10.4 °C 0.4 °F /  -17.6 °C 30.02in /  1016.5hPa NW 2.0mph /  3.2km/h 13.0mph /  20.9km/h 56% 0.00in /  0mm
16:15 13.0 °F /  -10.6 °C 0.6 °F /  -17.4 °C 30.03in /  1016.8hPa NNW 3.0mph /  4.8km/h 15.0mph /  24.1km/h 57% 0.00in /  0mm
16:20 12.8 °F /  -10.7 °C 0.4 °F /  -17.6 °C 30.03in /  1016.8hPa NW 4.0mph /  6.4km/h 15.0mph /  24.1km/h 57% 0.00in /  0mm
16:24 12.6 °F /  -10.8 °C 0.2 °F /  -17.7 °C 30.04in /  1017.2hPa NNW 4.0mph /  6.4km/h 11.0mph /  17.7km/h 57% 0.00in /  0mm
16:30 12.3 °F /  -10.9 °C 0.3 °F /  -17.6 °C 30.04in /  1017.2hPa NNW 5.0mph /  8km/h 8.0mph /  12.9km/h 58% 0.00in /  0mm
16:40 11.9 °F /  -11.2 °C 0.0 °F /  -17.8 °C 30.05in /  1017.5hPa NW 4.0mph /  6.4km/h 10.0mph /  16.1km/h 58% 0.00in /  0mm
16:45 11.7 °F /  -11.3 °C 0.1 °F /  -17.7 °C 30.05in /  1017.5hPa NW 3.0mph /  4.8km/h 10.0mph /  16.1km/h 59% 0.00in /  0mm
16:50 11.6 °F /  -11.3 °C 0.0 °F /  -17.8 °C 30.05in /  1017.5hPa NW 1.0mph /  1.6km/h 8.0mph /  12.9km/h 59% 0.00in /  0mm
16:59 10.9 °F /  -11.7 °C 0.1 °F /  -17.7 °C 30.05in /  1017.5hPa Calm   4.0mph /  6.4km/h 61% 0.00in /  0mm
17:04 10.7 °F /  -11.8 °C 0.2 °F /  -17.7 °C 30.06in /  1017.8hPa Calm   4.0mph /  6.4km/h 62% 0.00in /  0mm
17:10 10.5 °F /  -11.9 °C 0.0 °F /  -17.8 °C 30.06in /  1017.8hPa Calm   2.0mph /  3.2km/h 62% 0.00in /  0mm
17:15 10.4 °F /  -12 °C 0.0 °F /  -17.8 °C 30.07in /  1018.2hPa Calm   3.0mph /  4.8km/h 62% 0.00in /  0mm
17:19 10.4 °F /  -12 °C 0.3 °F /  -17.6 °C 30.07in /  1018.2hPa Calm   3.0mph /  4.8km/h 63% 0.00in /  0mm
17:25 10.3 °F /  -12.1 °C 0.2 °F /  -17.7 °C 30.07in /  1018.2hPa Calm   3.0mph /  4.8km/h 63% 0.00in /  0mm
17:30 9.9 °F /  -12.3 °C -0.2 °F /  -17.9 °C 30.07in /  1018.2hPa Calm     63% 0.00in /  0mm
17:35 9.6 °F /  -12.4 °C -0.1 °F /  -17.8 °C 30.07in /  1018.2hPa Calm   2.0mph /  3.2km/h 64% 0.00in /  0mm
17:40 9.6 °F /  -12.4 °C -0.5 °F /  -18.1 °C 30.08in /  1018.5hPa NW 2.0mph /  3.2km/h 9.0mph /  14.5km/h 63% 0.00in /  0mm
17:45 9.8 °F /  -12.3 °C -0.6 °F /  -18.1 °C 30.08in /  1018.5hPa NNW 2.0mph /  3.2km/h 9.0mph /  14.5km/h 62% 0.00in /  0mm
17:49 9.9 °F /  -12.3 °C -0.9 °F /  -18.3 °C 30.08in /  1018.5hPa NNW 5.0mph /  8km/h 10.0mph /  16.1km/h 61% 0.00in /  0mm
17:55 10.2 °F /  -12.1 °C -0.6 °F /  -18.1 °C 30.08in /  1018.5hPa NW 4.0mph /  6.4km/h 11.0mph /  17.7km/h 61% 0.00in /  0mm
17:59 10.3 °F /  -12.1 °C -0.5 °F /  -18.1 °C 30.08in /  1018.5hPa NW 3.0mph /  4.8km/h 11.0mph /  17.7km/h 61% 0.00in /  0mm
18:05 10.3 °F /  -12.1 °C -0.5 °F /  -18.1 °C 30.09in /  1018.8hPa Calm   9.0mph /  14.5km/h 61% 0.00in /  0mm
18:10 10.3 °F /  -12.1 °C -0.5 °F /  -18.1 °C 30.09in /  1018.8hPa NW 1.0mph /  1.6km/h 9.0mph /  14.5km/h 61% 0.00in /  0mm
18:14 10.3 °F /  -12.1 °C -0.5 °F /  -18.1 °C 30.09in /  1018.8hPa NW 4.0mph /  6.4km/h 9.0mph /  14.5km/h 61% 0.00in /  0mm
18:20 10.4 °F /  -12 °C -0.4 °F /  -18 °C 30.10in /  1019.2hPa WNW 3.0mph /  4.8km/h 7.0mph /  11.3km/h 61% 0.00in /  0mm
18:25 10.3 °F /  -12.1 °C -0.5 °F /  -18.1 °C 30.10in /  1019.2hPa NNW 2.0mph /  3.2km/h 6.0mph /  9.7km/h 61% 0.00in /  0mm
18:30 10.3 °F /  -12.1 °C -0.5 °F /  -18.1 °C 30.10in /  1019.2hPa NW 1.0mph /  1.6km/h 6.0mph /  9.7km/h 61% 0.00in /  0mm
18:35 10.1 °F /  -12.2 °C -0.3 °F /  -17.9 °C 30.11in /  1019.5hPa NW 1.0mph /  1.6km/h 6.0mph /  9.7km/h 62% 0.00in /  0mm
18:40 9.9 °F /  -12.3 °C -0.5 °F /  -18.1 °C 30.11in /  1019.5hPa Calm   3.0mph /  4.8km/h 62% 0.00in /  0mm
18:45 9.6 °F /  -12.4 °C -0.5 °F /  -18.1 °C 30.11in /  1019.5hPa Calm   4.0mph /  6.4km/h 63% 0.00in /  0mm
18:50 9.4 °F /  -12.6 °C -0.3 °F /  -17.9 °C 30.11in /  1019.5hPa NW 1.0mph /  1.6km/h 5.0mph /  8km/h 64% 0.00in /  0mm
18:54 9.2 °F /  -12.7 °C -0.5 °F /  -18.1 °C 30.11in /  1019.5hPa NW 2.0mph /  3.2km/h 7.0mph /  11.3km/h 64% 0.00in /  0mm
18:59 9.1 °F /  -12.7 °C -0.6 °F /  -18.1 °C 30.12in /  1019.9hPa NW 1.0mph /  1.6km/h 7.0mph /  11.3km/h 64% 0.00in /  0mm
19:05 9.1 °F /  -12.7 °C -0.3 °F /  -17.9 °C 30.12in /  1019.9hPa NNW 2.0mph /  3.2km/h 6.0mph /  9.7km/h 65% 0.00in /  0mm
19:09 9.1 °F /  -12.7 °C -0.3 °F /  -17.9 °C 30.12in /  1019.9hPa NNW 1.0mph /  1.6km/h 6.0mph /  9.7km/h 65% 0.00in /  0mm
19:14 9.0 °F /  -12.8 °C -0.1 °F /  -17.8 °C 30.13in /  1020.2hPa Calm   5.0mph /  8km/h 66% 0.00in /  0mm
19:20 8.9 °F /  -12.8 °C -0.1 °F /  -17.8 °C 30.13in /  1020.2hPa Calm   5.0mph /  8km/h 66% 0.00in /  0mm
19:25 8.7 °F /  -12.9 °C -0.3 °F /  -17.9 °C 30.13in /  1020.2hPa Calm   3.0mph /  4.8km/h 66% 0.00in /  0mm
19:29 8.5 °F /  -13.1 °C -0.2 °F /  -17.9 °C 30.14in /  1020.5hPa NNW 1.0mph /  1.6km/h 4.0mph /  6.4km/h 67% 0.00in /  0mm
19:34 8.3 °F /  -13.2 °C -0.1 °F /  -17.8 °C 30.14in /  1020.5hPa NNW 2.0mph /  3.2km/h 5.0mph /  8km/h 68% 0.00in /  0mm
19:40 8.2 °F /  -13.2 °C 0.1 °F /  -17.7 °C 30.14in /  1020.5hPa Calm   5.0mph /  8km/h 69% 0.00in /  0mm
19:44 8.2 °F /  -13.2 °C 0.1 °F /  -17.7 °C 30.15in /  1020.9hPa Calm   3.0mph /  4.8km/h 69% 0.00in /  0mm
19:49 7.9 °F /  -13.4 °C -0.2 °F /  -17.9 °C 30.15in /  1020.9hPa Calm   3.0mph /  4.8km/h 69% 0.00in /  0mm
19:55 7.7 °F /  -13.5 °C 0.0 °F /  -17.8 °C 30.16in /  1021.2hPa Calm     70% 0.00in /  0mm
19:59 7.8 °F /  -13.4 °C 0.4 °F /  -17.6 °C 30.16in /  1021.2hPa Calm     71% 0.00in /  0mm
20:05 7.7 °F /  -13.5 °C 0.6 °F /  -17.4 °C 30.16in /  1021.2hPa Calm     72% 0.00in /  0mm
20:10 7.6 °F /  -13.6 °C 0.5 °F /  -17.5 °C 30.16in /  1021.2hPa Calm     72% 0.00in /  0mm
20:14 7.5 °F /  -13.6 °C 0.4 °F /  -17.6 °C 30.16in /  1021.2hPa Calm     72% 0.00in /  0mm
20:19 7.2 °F /  -13.8 °C 0.1 °F /  -17.7 °C 30.16in /  1021.2hPa Calm     72% 0.00in /  0mm
20:25 6.9 °F /  -13.9 °C -0.2 °F /  -17.9 °C 30.16in /  1021.2hPa Calm     72% 0.00in /  0mm
20:29 6.4 °F /  -14.2 °C -0.4 °F /  -18 °C 30.16in /  1021.2hPa Calm     73% 0.00in /  0mm
20:35 6.0 °F /  -14.4 °C -0.5 °F /  -18.1 °C 30.16in /  1021.2hPa Calm     74% 0.00in /  0mm
20:45 5.2 °F /  -14.9 °C -1.0 °F /  -18.3 °C 30.16in /  1021.2hPa Calm     75% 0.00in /  0mm
20:50 5.1 °F /  -14.9 °C -0.8 °F /  -18.2 °C 30.16in /  1021.2hPa Calm     76% 0.00in /  0mm
20:54 5.4 °F /  -14.8 °C -0.5 °F /  -18.1 °C 30.17in /  1021.6hPa Calm     76% 0.00in /  0mm
21:00 5.6 °F /  -14.7 °C 0.0 °F /  -17.8 °C 30.16in /  1021.2hPa Calm     77% 0.00in /  0mm
21:04 5.7 °F /  -14.6 °C 0.1 °F /  -17.7 °C 30.17in /  1021.6hPa Calm     77% 0.00in /  0mm
21:10 5.6 °F /  -14.7 °C -0.3 °F /  -17.9 °C 30.17in /  1021.6hPa Calm     76% 0.00in /  0mm
21:14 5.6 °F /  -14.7 °C 0.0 °F /  -17.8 °C 30.17in /  1021.6hPa Calm     77% 0.00in /  0mm
21:20 5.9 °F /  -14.5 °C 0.2 °F /  -17.7 °C 30.17in /  1021.6hPa Calm     77% 0.00in /  0mm
21:25 6.5 °F /  -14.2 °C 0.8 °F /  -17.3 °C 30.17in /  1021.6hPa Calm     77% 0.00in /  0mm
21:30 7.0 °F /  -13.9 °C 1.0 °F /  -17.2 °C 30.18in /  1021.9hPa Calm   2.0mph /  3.2km/h 76% 0.00in /  0mm
21:35 6.8 °F /  -14 °C 0.6 °F /  -17.4 °C 30.18in /  1021.9hPa Calm   2.0mph /  3.2km/h 75% 0.00in /  0mm
21:40 6.7 °F /  -14.1 °C 0.5 °F /  -17.5 °C 30.18in /  1021.9hPa Calm     75% 0.00in /  0mm
21:45 6.5 °F /  -14.2 °C 0.0 °F /  -17.8 °C 30.18in /  1021.9hPa Calm     74% 0.00in /  0mm
21:50 6.3 °F /  -14.3 °C 0.1 °F /  -17.7 °C 30.18in /  1021.9hPa Calm   2.0mph /  3.2km/h 75% 0.00in /  0mm
22:00 6.1 °F /  -14.4 °C -0.1 °F /  -17.8 °C 30.18in /  1021.9hPa Calm     75% 0.00in /  0mm
22:04 6.0 °F /  -14.4 °C -0.2 °F /  -17.9 °C 30.19in /  1022.2hPa Calm     75% 0.00in /  0mm
22:09 6.0 °F /  -14.4 °C -0.2 °F /  -17.9 °C 30.19in /  1022.2hPa Calm   3.0mph /  4.8km/h 75% 0.00in /  0mm
22:15 6.1 °F /  -14.4 °C -0.1 °F /  -17.8 °C 30.19in /  1022.2hPa Calm   3.0mph /  4.8km/h 75% 0.00in /  0mm
22:19 6.2 °F /  -14.3 °C -0.3 °F /  -17.9 °C 30.19in /  1022.2hPa Calm   3.0mph /  4.8km/h 74% 0.00in /  0mm
22:25 6.2 °F /  -14.3 °C -0.3 °F /  -17.9 °C 30.19in /  1022.2hPa NNW 1.0mph /  1.6km/h 2.0mph /  3.2km/h 74% 0.00in /  0mm
22:30 6.2 °F /  -14.3 °C -0.6 °F /  -18.1 °C 30.18in /  1021.9hPa Calm   2.0mph /  3.2km/h 73% 0.00in /  0mm
22:40 6.8 °F /  -14 °C -0.3 °F /  -17.9 °C 30.19in /  1022.2hPa Calm   3.0mph /  4.8km/h 72% 0.00in /  0mm
22:49 7.2 °F /  -13.8 °C -0.2 °F /  -17.9 °C 30.19in /  1022.2hPa Calm     71% 0.00in /  0mm
22:54 6.9 °F /  -13.9 °C -0.2 °F /  -17.9 °C 30.19in /  1022.2hPa Calm     72% 0.00in /  0mm
22:59 6.6 °F /  -14.1 °C -0.5 °F /  -18.1 °C 30.19in /  1022.2hPa Calm     72% 0.00in /  0mm
23:04 6.1 °F /  -14.4 °C -1.0 °F /  -18.3 °C 30.19in /  1022.2hPa Calm     72% 0.00in /  0mm
23:09 6.2 °F /  -14.3 °C -0.6 °F /  -18.1 °C 30.19in /  1022.2hPa Calm     73% 0.00in /  0mm
23:15 6.5 °F /  -14.2 °C 0.0 °F /  -17.8 °C 30.19in /  1022.2hPa Calm     74% 0.00in /  0mm
23:20 6.1 °F /  -14.4 °C -0.7 °F /  -18.2 °C 30.19in /  1022.2hPa Calm     73% 0.00in /  0mm
23:24 6.0 °F /  -14.4 °C -0.5 °F /  -18.1 °C 30.19in /  1022.2hPa Calm     74% 0.00in /  0mm
23:30 5.9 °F /  -14.5 °C -0.6 °F /  -18.1 °C 30.18in /  1021.9hPa Calm     74% 0.00in /  0mm
23:35 5.8 °F /  -14.6 °C -0.7 °F /  -18.2 °C 30.18in /  1021.9hPa Calm     74% 0.00in /  0mm
23:39 5.3 °F /  -14.8 °C -1.5 °F /  -18.6 °C 30.19in /  1022.2hPa Calm     73% 0.00in /  0mm
23:45 4.4 °F /  -15.3 °C -2.6 °F /  -19.2 °C 30.18in /  1021.9hPa Calm     72% 0.00in /  0mm
23:50 3.1 °F /  -16.1 °C -3.3 °F /  -19.6 °C 30.18in /  1021.9hPa Calm     74% 0.00in /  0mm
23:55 2.5 °F /  -16.4 °C -3.6 °F /  -19.8 °C 30.18in /  1021.9hPa Calm     75% 0.00in /  0mm
23:59 2.3 °F /  -16.5 °C -3.5 °F /  -19.7 °C 30.17in /  1021.6hPa Calm     76% 0.00in /  0mm
Westford Weather
Compliments of Weather Underground

 
 
Current Radar Loop:

Copyright © WestfordWeather.net 2007-2014. All rights reserved.